WetterOnline ( https://www.wetteronline.de )

Wetter aktuell Bad Hönningen

Aktuelles Wetter: Königswinter-Heiderhof (147m)

6-stündlich | Neueste Meldungen
Ortszeit Temperatur Wetter
So, 05.02. 7:00 5.3° C Regen
So, 05.02. 1:00 5.9° C bedeckt
Sa, 04.02. 19:00 7.0° C bedeckt
Sa, 04.02. 13:00 7.7° C bedeckt
Sa, 04.02. 7:00 6.0° C bedeckt
Sa, 04.02. 1:00 7.9° C bedeckt
Fr, 03.02. 19:00 8.3° C Regen
Fr, 03.02. 13:00 9.3° C bedeckt
Ortszeit Temperatur Wetter
So, 05.02. 10:30 5.9° C Regen
So, 05.02. 10:20 5.9° C Regen
So, 05.02. 10:10 5.9° C leichter Regen
So, 05.02. 10:00 5.9° C leichter Regen
So, 05.02. 9:50 5.9° C leichter Regen
So, 05.02. 9:40 6.0° C leichter Regen
So, 05.02. 9:30 6.1° C leichter Regen
So, 05.02. 9:00 5.9° C Sprühregen
So, 05.02. 8:30 5.7° C leichter Regen
So, 05.02. 8:00 5.6° C leichter Regen
So, 05.02. 7:30 5.5° C bedeckt
Ortszeit Relative Feuchte Sichtweite
So, 05.02. 7:00 97% 3.3 km
So, 05.02. 1:00 87% 17 km
Sa, 04.02. 19:00 74% 21 km
Sa, 04.02. 13:00 76% 20 km
Sa, 04.02. 7:00 91% 19 km
Sa, 04.02. 1:00 75% 28 km
Fr, 03.02. 19:00 88% 28 km
Fr, 03.02. 13:00 79% 60 km
Ortszeit Relative Feuchte Sichtweite
So, 05.02. 10:30 95% 4.3 km
So, 05.02. 10:20 95% -
So, 05.02. 10:10 94% -
So, 05.02. 10:00 94% 6 km
So, 05.02. 9:50 94% -
So, 05.02. 9:40 93% -
So, 05.02. 9:30 94% 3.8 km
So, 05.02. 9:00 95% 5.0 km
So, 05.02. 8:30 96% 5.0 km
So, 05.02. 8:00 96% 5.0 km
So, 05.02. 7:30 94% 16 km
Ortszeit Niederschlagsmenge Niederschlagsart
So, 05.02. 7:00 0.8 l/m2 in 12 Std. Regen
So, 05.02. 1:00 0.1 l/m2 in 6 Std. Sprühregen
Sa, 04.02. 19:00 0.0 l/m2 in 12 Std. -
Sa, 04.02. 13:00 0.0 l/m2 in 6 Std. -
Sa, 04.02. 7:00 0.1 l/m2 in 12 Std. Regen
Sa, 04.02. 1:00 0.1 l/m2 in 6 Std. Sprühregen
Fr, 03.02. 19:00 1 l/m2 in 12 Std. Regen
Fr, 03.02. 13:00 0.1 l/m2 in 6 Std. Sprühregen
Ortszeit Niederschlagsmenge Niederschlagsart
So, 05.02. 10:30 1.4 l/m2 in 30 Min -
So, 05.02. 10:20 keine Meldung -
So, 05.02. 10:10 keine Meldung -
So, 05.02. 10:00 0.8 l/m2 in 1 Std. Regen
So, 05.02. 9:50 keine Meldung -
So, 05.02. 9:40 keine Meldung -
So, 05.02. 9:30 <0.05 l/m2 in 30 Min -
So, 05.02. 9:00 0.4 l/m2 in 1 Std. Regen
So, 05.02. 8:30 0.3 l/m2 in 30 Min -
So, 05.02. 8:00 0.9 l/m2 in 1 Std. Regen
So, 05.02. 7:30 0.9 l/m2 in 30 Min Schneeregen
Ortszeit Stärke Spitze Richtung
km/h Bft. km/h Grad Sektor
So, 05.02. 7:00 9 2 20 250° W
So, 05.02. 1:00 9 2 11 240° SW
Sa, 04.02. 19:00 4 1 14 320° NW
Sa, 04.02. 13:00 7 2 18 300° NW
Sa, 04.02. 7:00 9 2 28 280° W
Sa, 04.02. 1:00 13 3 43 310° NW
Fr, 03.02. 19:00 14 3 58 290° W
Fr, 03.02. 13:00 29 5 58 280° W
Ortszeit Stärke Spitze Richtung
km/h Bft. km/h Grad Sektor
So, 05.02. 10:30 14 3 29 280° W
So, 05.02. 10:20 14 3 - 280° W
So, 05.02. 10:10 14 3 - 270° W
So, 05.02. 10:00 11 2 22 270° W
So, 05.02. 9:50 11 2 - 270° W
So, 05.02. 9:40 13 3 - 270° W
So, 05.02. 9:30 14 3 22 270° W
So, 05.02. 9:00 11 2 18 260° W
So, 05.02. 8:30 11 2 14 250° W
So, 05.02. 8:00 7 2 22 240° SW
So, 05.02. 7:30 7 2 22 240° SW
Ortszeit Untergrenze Bedeckung Gattung
total tief tief mittel hoch
So, 05.02. 7:00 210 m 7/8 7/8 - - -
So, 05.02. 1:00 750 m 8/8 8/8 - - -
Sa, 04.02. 19:00 1170 m 8/8 8/8 - - -
Sa, 04.02. 13:00 420 m 8/8 8/8 - - -
Sa, 04.02. 7:00 300 m 8/8 8/8 - - -
Sa, 04.02. 1:00 750 m 8/8 8/8 - - -
Fr, 03.02. 19:00 960 m 8/8 8/8 - - -
Fr, 03.02. 13:00 480 m 8/8 8/8 - - -
Ortszeit Bedeckungsgrad in Achtel und Wolkenuntergrenze
So, 05.02. 10:30 6(180m) 6(600m) 7(750m)
So, 05.02. 10:20 6(180m) 6(600m) 7(750m)
So, 05.02. 10:10 7
So, 05.02. 10:00 4(240m) 7(630m) 7(930m)
So, 05.02. 9:50 4(240m) 7(630m) 7(930m)
So, 05.02. 9:40 7
So, 05.02. 9:30 4(240m) 7(1020m) 8(1470m)
So, 05.02. 9:00 7(390m) 7(750m) 7(1140m)
So, 05.02. 8:30 6(150m) 7(990m) 7(1410m)
So, 05.02. 8:00 4(330m) 7(510m) 8(2400m)
So, 05.02. 7:30 1(240m) 7(1500m) 8(2100m)
Ortszeit Luftdruck NN (hPa) Tendenz (hPa in 3 Std.)
So, 05.02. 7:00 1036 - 0,1
So, 05.02. 1:00 1038 - 0,2
Sa, 04.02. 19:00 1038 + 0,9
Sa, 04.02. 13:00 1037 + 0,9
Sa, 04.02. 7:00 1034 + 1,3
Sa, 04.02. 1:00 1031 + 1,4
Fr, 03.02. 19:00 1028 + 1,5
Fr, 03.02. 13:00 1026 - 0,1
Ortszeit Luftdruck NN (hPa) Tendenz (hPa in 3 Std.)
So, 05.02. 10:30 1035 - 0,6
So, 05.02. 10:20 1035 keine Meldung
So, 05.02. 10:10 1036 keine Meldung
So, 05.02. 10:00 1036 - 0,7
So, 05.02. 9:50 1036 keine Meldung
So, 05.02. 9:40 1036 keine Meldung
So, 05.02. 9:30 1036 - 0,7
So, 05.02. 9:00 1036 - 0,5
So, 05.02. 8:30 1036 - 0,3
So, 05.02. 8:00 1036 - 0,3
So, 05.02. 7:30 1036 - 0,5
Ortszeit Schneehöhe (cm)
So, 05.02. 7:00 0
So, 05.02. 1:00 0
Sa, 04.02. 19:00 0
Sa, 04.02. 13:00 0
Sa, 04.02. 7:00 0
Sa, 04.02. 1:00 0
Fr, 03.02. 19:00 0
Fr, 03.02. 13:00 0
Ortszeit Schneehöhe (cm)
So, 05.02. 10:30 0
So, 05.02. 10:20 0
So, 05.02. 10:10 0
So, 05.02. 10:00 0
So, 05.02. 9:50 0
So, 05.02. 9:40 0
So, 05.02. 9:30 0
So, 05.02. 9:00 0
So, 05.02. 8:30 0
So, 05.02. 8:00 0
So, 05.02. 7:30 0
Link zu dieser Seite / Seite empfehlen

Das Wetter in ...